createdAt,value
2019-03-21T00:03:12.922Z,9.67
2019-03-21T00:08:55.713Z,11.00
2019-03-21T00:12:03.769Z,9.67
2019-03-21T00:14:54.974Z,7.33
2019-03-21T00:20:53.103Z,6.33
2019-03-21T00:23:43.157Z,9.00
2019-03-21T00:26:52.710Z,6.33
2019-03-21T00:29:24.808Z,4.00
2019-03-21T00:31:57.067Z,5.00
2019-03-21T00:34:28.347Z,5.00
2019-03-21T00:37:18.422Z,6.33
2019-03-21T00:39:49.643Z,7.00
2019-03-21T00:42:20.441Z,7.00
2019-03-21T00:44:52.575Z,7.00
2019-03-21T00:50:14.818Z,7.00
2019-03-21T00:52:46.001Z,7.67
2019-03-21T00:55:36.189Z,8.33
2019-03-21T00:58:19.359Z,7.00
2019-03-21T01:01:08.512Z,9.00
2019-03-21T01:03:39.009Z,7.67
2019-03-21T01:06:12.475Z,9.00
2019-03-21T01:09:02.591Z,9.00
2019-03-21T01:11:33.888Z,6.67
2019-03-21T01:14:04.454Z,7.00
2019-03-21T01:16:35.151Z,9.67
2019-03-21T01:19:05.631Z,13.00
2019-03-21T01:21:35.938Z,11.67
2019-03-21T01:24:06.583Z,9.67
2019-03-21T01:26:36.907Z,9.67
2019-03-21T01:29:07.252Z,9.67
2019-03-21T01:32:15.223Z,9.67
2019-03-21T01:34:46.294Z,7.67
2019-03-21T01:37:35.490Z,9.67
2019-03-21T01:43:15.118Z,9.00
2019-03-21T01:45:45.490Z,9.67
2019-03-21T01:48:15.821Z,9.67
2019-03-21T01:51:05.368Z,9.00
2019-03-21T01:53:54.765Z,8.67
2019-03-21T01:56:43.942Z,12.00
2019-03-21T01:59:33.201Z,11.67
2019-03-21T02:10:18.069Z,15.67
2019-03-21T02:12:48.493Z,13.00
2019-03-21T02:15:37.646Z,15.00
2019-03-21T02:21:16.199Z,11.67
2019-03-21T02:23:46.612Z,14.00
2019-03-21T02:26:17.657Z,15.67
2019-03-21T02:29:06.848Z,13.67
2019-03-21T02:31:40.313Z,14.33
2019-03-21T02:34:10.727Z,12.00
2019-03-21T02:37:00.230Z,11.67
2019-03-21T02:39:30.808Z,11.67
2019-03-21T02:42:01.493Z,13.67
2019-03-21T02:44:32.526Z,12.00
2019-03-21T02:47:02.919Z,13.67
2019-03-21T02:52:43.361Z,9.00
2019-03-21T02:55:13.922Z,12.00
2019-03-21T02:57:46.349Z,12.00
2019-03-21T03:00:35.525Z,9.67
2019-03-21T03:03:06.233Z,7.67
2019-03-21T03:05:36.611Z,9.00
2019-03-21T03:11:11.037Z,11.67
2019-03-21T03:13:43.375Z,7.67
2019-03-21T03:16:32.633Z,9.67
2019-03-21T03:19:23.720Z,9.67
2019-03-21T03:24:43.650Z,10.67
2019-03-21T03:27:32.851Z,9.67
2019-03-21T03:30:03.334Z,9.33
2019-03-21T03:32:52.527Z,10.00
2019-03-21T03:35:23.029Z,12.00
2019-03-21T03:38:13.863Z,10.67
2019-03-21T03:40:46.811Z,12.00
2019-03-21T03:46:06.746Z,10.00
2019-03-21T03:48:37.071Z,8.67
2019-03-21T03:51:26.233Z,10.00
2019-03-21T03:53:56.674Z,9.33
2019-03-21T03:56:45.931Z,8.00
2019-03-21T04:02:17.319Z,6.67
2019-03-21T04:04:50.348Z,8.00
2019-03-21T04:10:54.989Z,8.00
2019-03-21T04:13:26.285Z,6.00
2019-03-21T04:15:56.593Z,6.00
2019-03-21T04:18:46.586Z,7.33
2019-03-21T04:24:00.308Z,6.00
2019-03-21T04:29:40.950Z,6.00
2019-03-21T04:35:02.027Z,8.00
2019-03-21T04:37:52.874Z,3.25
2019-03-21T04:40:24.212Z,7.33
2019-03-21T04:43:15.324Z,6.50
2019-03-21T04:45:45.904Z,8.00
2019-03-21T04:54:09.203Z,12.00
2019-03-21T04:56:40.360Z,10.00
2019-03-21T04:59:29.663Z,8.00
2019-03-21T05:02:00.095Z,10.00
2019-03-21T05:04:30.429Z,10.67
2019-03-21T05:07:00.860Z,8.67
2019-03-21T05:09:32.265Z,11.33
2019-03-21T05:12:02.685Z,12.00
2019-03-21T05:14:52.052Z,10.00
2019-03-21T05:17:23.394Z,10.00
2019-03-21T05:23:03.434Z,11.00
2019-03-21T05:25:35.608Z,11.00
2019-03-21T05:28:24.947Z,11.33
2019-03-21T05:31:01.571Z,8.33
2019-03-21T05:42:01.208Z,8.33
2019-03-21T05:45:06.915Z,9.00
2019-03-21T05:47:38.345Z,9.00
2019-03-21T05:53:13.654Z,6.67
2019-03-21T05:59:32.797Z,7.00
2019-03-21T06:02:05.485Z,8.67
2019-03-21T06:04:37.971Z,7.33
2019-03-21T06:07:21.300Z,6.00
2019-03-21T06:10:11.507Z,9.33
2019-03-21T06:13:00.607Z,11.33
2019-03-21T06:15:49.675Z,10.00
2019-03-21T06:18:43.025Z,12.00
2019-03-21T06:21:54.589Z,12.00
2019-03-21T06:25:02.655Z,11.67
2019-03-21T06:27:51.808Z,11.00
2019-03-21T06:30:41.090Z,14.33
2019-03-21T06:33:11.852Z,11.67
2019-03-21T06:35:42.220Z,13.00
2019-03-21T06:38:12.838Z,13.00
2019-03-21T06:43:32.506Z,13.33
2019-03-21T06:46:03.071Z,12.33
2019-03-21T06:48:52.355Z,10.33
2019-03-21T06:51:33.992Z,11.33
2019-03-21T06:54:04.407Z,14.67
2019-03-21T06:56:53.466Z,15.33
2019-03-21T06:59:25.904Z,17.00
2019-03-21T07:02:27.473Z,16.67
2019-03-21T07:04:47.296Z,17.67
2019-03-21T07:07:20.447Z,17.33
2019-03-21T07:13:01.973Z,16.00
2019-03-21T07:15:32.549Z,17.00
2019-03-21T07:18:21.765Z,17.67
2019-03-21T07:20:54.451Z,13.00
2019-03-21T07:26:55.323Z,22.33
2019-03-21T07:29:42.007Z,15.33
2019-03-21T07:32:40.928Z,21.33
2019-03-21T07:35:11.494Z,19.00
2019-03-21T07:37:41.965Z,18.67
2019-03-21T07:40:13.498Z,18.67
2019-03-21T07:43:03.957Z,18.00
2019-03-21T07:45:34.654Z,20.00
2019-03-21T07:48:05.521Z,20.00
2019-03-21T07:54:19.833Z,19.67
2019-03-21T07:57:09.021Z,17.33
2019-03-21T08:02:45.035Z,17.33
2019-03-21T08:05:40.473Z,19.00
2019-03-21T08:08:08.681Z,17.33
2019-03-21T08:10:59.164Z,18.00
2019-03-21T08:14:23.717Z,18.33
2019-03-21T08:26:19.914Z,17.67
2019-03-21T08:29:28.085Z,17.67
2019-03-21T08:31:58.733Z,19.00
2019-03-21T08:35:09.484Z,20.25
2019-03-21T08:38:11.332Z,19.67
2019-03-21T08:40:44.294Z,19.00
2019-03-21T08:43:15.611Z,19.33
2019-03-21T08:48:35.520Z,16.67
2019-03-21T08:51:43.998Z,20.00
2019-03-21T08:57:29.406Z,17.00
2019-03-21T09:00:34.414Z,18.00
2019-03-21T09:03:44.040Z,16.67
2019-03-21T09:17:21.801Z,16.00
2019-03-21T09:20:28.352Z,16.33
2019-03-21T09:23:21.804Z,14.67
2019-03-21T09:26:01.636Z,16.00
2019-03-21T09:31:47.540Z,18.67
2019-03-21T09:34:53.725Z,17.00
2019-03-21T09:37:43.580Z,18.00
2019-03-21T09:40:14.131Z,13.67
2019-03-21T09:42:50.804Z,13.00
2019-03-21T09:48:23.746Z,14.67
2019-03-21T09:54:09.276Z,13.33
2019-03-21T09:56:33.219Z,16.00
2019-03-21T09:59:43.712Z,11.33
2019-03-21T10:02:14.208Z,15.67
2019-03-21T10:05:04.483Z,13.33
2019-03-21T10:07:35.903Z,14.00
2019-03-21T10:10:25.206Z,13.00
2019-03-21T10:12:57.786Z,11.00
2019-03-21T10:15:28.462Z,12.67
2019-03-21T10:17:58.777Z,11.67
2019-03-21T10:29:37.218Z,11.00
2019-03-21T10:32:55.814Z,12.67
2019-03-21T10:35:45.048Z,8.00
2019-03-21T10:38:46.307Z,13.00
2019-03-21T10:41:16.733Z,13.00
2019-03-21T10:44:07.351Z,10.33
2019-03-21T10:46:37.789Z,10.00
2019-03-21T10:49:27.022Z,13.33
2019-03-21T10:52:16.322Z,9.00
2019-03-21T10:55:24.212Z,10.33
2019-03-21T10:57:54.619Z,11.00
2019-03-21T11:00:27.383Z,12.00
2019-03-21T11:06:08.421Z,11.33
2019-03-21T11:08:59.509Z,7.33
2019-03-21T11:14:40.367Z,8.67
2019-03-21T11:17:43.396Z,9.67
2019-03-21T11:23:36.864Z,9.67
2019-03-21T11:26:15.915Z,9.00
2019-03-21T11:29:05.157Z,10.00
2019-03-21T11:32:13.025Z,8.67
2019-03-21T11:34:46.169Z,9.00
2019-03-21T11:43:40.257Z,10.00
2019-03-21T11:49:41.700Z,9.67
2019-03-21T11:55:33.372Z,8.00
2019-03-21T11:58:24.379Z,8.33
2019-03-21T12:01:15.662Z,10.67
2019-03-21T12:03:46.190Z,8.67
2019-03-21T12:06:35.577Z,9.00
2019-03-21T12:09:08.128Z,8.00
2019-03-21T12:11:57.856Z,8.33
2019-03-21T12:14:47.001Z,9.00
2019-03-21T12:17:57.614Z,8.00
2019-03-21T12:20:46.905Z,8.00
2019-03-21T12:23:47.849Z,8.00
2019-03-21T12:32:03.541Z,8.00
2019-03-21T12:38:23.074Z,8.00
2019-03-21T12:44:42.073Z,8.00
2019-03-21T12:47:31.925Z,8.67
2019-03-21T12:50:03.528Z,8.67
2019-03-21T12:55:25.185Z,6.00
2019-03-21T12:58:14.376Z,7.00
2019-03-21T13:01:22.419Z,7.67
2019-03-21T13:04:00.027Z,7.00
2019-03-21T13:06:32.716Z,6.67
2019-03-21T13:09:09.200Z,8.33
2019-03-21T13:11:39.613Z,7.67
2019-03-21T13:14:10.968Z,8.00
2019-03-21T13:16:41.350Z,7.67
2019-03-21T13:19:20.890Z,7.67
2019-03-21T13:21:50.968Z,9.33
2019-03-21T13:24:21.337Z,9.67
2019-03-21T13:26:54.539Z,10.67
2019-03-21T13:29:25.213Z,10.67
2019-03-21T13:31:57.584Z,10.00
2019-03-21T13:34:28.957Z,8.33
2019-03-21T13:36:59.402Z,9.33
2019-03-21T13:39:29.787Z,9.33
2019-03-21T13:42:00.183Z,9.67
2019-03-21T13:44:30.973Z,9.00
2019-03-21T13:47:18.087Z,10.00
2019-03-21T13:49:48.794Z,10.00
2019-03-21T13:52:21.209Z,10.00
2019-03-21T13:54:55.368Z,9.00
2019-03-21T13:57:33.238Z,9.33
2019-03-21T14:00:03.660Z,10.00
2019-03-21T14:02:35.339Z,7.00
2019-03-21T14:05:10.504Z,10.00
2019-03-21T14:07:41.022Z,9.33
2019-03-21T14:10:11.372Z,9.33
2019-03-21T14:12:44.119Z,9.00
2019-03-21T14:15:18.767Z,10.33
2019-03-21T14:17:50.952Z,10.33
2019-03-21T14:20:24.359Z,10.00
2019-03-21T14:22:56.628Z,9.00
2019-03-21T14:25:26.980Z,9.00
2019-03-21T14:27:58.317Z,7.00
2019-03-21T14:30:34.537Z,7.67
2019-03-21T14:33:22.062Z,7.00
2019-03-21T14:35:44.882Z,7.00
2019-03-21T14:38:25.851Z,8.33
2019-03-21T14:40:48.625Z,8.33
2019-03-21T14:43:20.267Z,9.00
2019-03-21T14:45:50.672Z,7.67
2019-03-21T14:48:21.957Z,7.33
2019-03-21T14:50:53.200Z,7.00
2019-03-21T14:53:29.216Z,8.33
2019-03-21T14:56:00.841Z,7.67
2019-03-21T14:58:32.987Z,6.00
2019-03-21T15:01:05.467Z,6.00
2019-03-21T15:03:40.421Z,7.67
2019-03-21T15:06:13.763Z,7.00
2019-03-21T15:08:46.102Z,8.33
2019-03-21T15:11:17.737Z,6.00
2019-03-21T15:13:49.349Z,6.33
2019-03-21T15:16:22.207Z,6.33
2019-03-21T15:18:52.607Z,6.67
2019-03-21T15:21:30.847Z,6.00
2019-03-21T15:24:03.237Z,7.00
2019-03-21T15:26:33.511Z,8.33
2019-03-21T15:29:08.842Z,7.00
2019-03-21T15:31:40.071Z,8.33
2019-03-21T15:34:17.872Z,7.00
2019-03-21T15:36:49.469Z,8.33
2019-03-21T15:39:20.779Z,7.00
2019-03-21T15:41:51.600Z,6.00
2019-03-21T15:44:25.403Z,5.50
2019-03-21T15:46:58.567Z,6.00
2019-03-21T15:49:30.520Z,6.67
2019-03-21T15:52:02.714Z,6.00
2019-03-21T15:54:39.572Z,5.00
2019-03-21T15:57:11.483Z,7.00
2019-03-21T15:59:43.606Z,4.50
2019-03-21T16:02:13.954Z,7.00
2019-03-21T16:04:48.563Z,6.00
2019-03-21T16:07:20.740Z,6.00
2019-03-21T16:09:58.677Z,6.25
2019-03-21T16:12:32.378Z,5.50
2019-03-21T16:15:15.398Z,6.33
2019-03-21T16:18:02.328Z,7.00
2019-03-21T16:20:37.212Z,7.00
2019-03-21T16:23:12.153Z,7.33
2019-03-21T16:25:45.014Z,5.00
2019-03-21T16:28:20.635Z,5.00
2019-03-21T16:31:00.248Z,5.50
2019-03-21T16:33:33.127Z,6.00
2019-03-21T16:36:09.602Z,6.50
2019-03-21T16:38:40.752Z,6.00
2019-03-21T16:41:14.670Z,6.00
2019-03-21T16:43:51.697Z,6.00
2019-03-21T16:46:33.190Z,6.00
2019-03-21T16:49:13.485Z,5.25
2019-03-21T16:51:51.463Z,7.00
2019-03-21T16:54:26.755Z,7.00
2019-03-21T16:57:00.790Z,6.50
2019-03-21T16:59:36.510Z,6.00
2019-03-21T17:02:13.865Z,8.33
2019-03-21T17:04:51.365Z,7.33
2019-03-21T17:07:27.071Z,7.33
2019-03-21T17:09:59.721Z,7.33
2019-03-21T17:12:32.304Z,8.25
2019-03-21T17:15:02.757Z,6.00
2019-03-21T17:17:34.047Z,6.67
2019-03-21T17:20:11.493Z,6.67
2019-03-21T17:22:44.255Z,8.00
2019-03-21T17:25:20.674Z,9.00
2019-03-21T17:27:56.447Z,8.00
2019-03-21T17:30:31.644Z,6.67
2019-03-21T17:33:06.027Z,8.00
2019-03-21T17:35:37.757Z,8.00
2019-03-21T17:38:08.087Z,8.00
2019-03-21T17:40:41.038Z,8.00
2019-03-21T17:43:13.170Z,6.50
2019-03-21T17:45:43.555Z,7.00
2019-03-21T17:48:16.389Z,7.67
2019-03-21T17:50:49.529Z,7.00
2019-03-21T17:53:20.948Z,5.67
2019-03-21T17:55:52.239Z,8.00
2019-03-21T17:58:22.547Z,7.00
2019-03-21T18:00:59.745Z,8.67
2019-03-21T18:03:34.332Z,8.00
2019-03-21T18:06:08.229Z,7.33
2019-03-21T18:08:41.273Z,7.00
2019-03-21T18:11:18.942Z,7.00
2019-03-21T18:13:57.032Z,7.00
2019-03-21T18:16:33.137Z,7.00
2019-03-21T18:19:04.292Z,7.67
2019-03-21T18:21:37.077Z,7.00
2019-03-21T18:24:14.213Z,7.00
2019-03-21T18:26:54.711Z,8.33
2019-03-21T18:29:26.316Z,9.00
2019-03-21T18:31:59.525Z,6.00
2019-03-21T18:34:32.969Z,7.67
2019-03-21T18:37:04.721Z,9.00
2019-03-21T18:39:39.456Z,10.00
2019-03-21T18:42:09.866Z,9.33
2019-03-21T18:44:40.203Z,9.00
2019-03-21T18:47:11.460Z,7.67
2019-03-21T18:49:42.151Z,9.67
2019-03-21T18:52:13.631Z,9.00
2019-03-21T18:54:44.088Z,7.00
2019-03-21T18:57:14.433Z,7.00
2019-03-21T18:59:44.886Z,8.33
2019-03-21T19:02:17.361Z,8.00
2019-03-21T19:05:01.034Z,9.00
2019-03-21T19:07:34.435Z,7.00
2019-03-21T19:10:07.944Z,9.00
2019-03-21T19:12:45.818Z,7.00
2019-03-21T19:15:22.744Z,10.00
2019-03-21T19:17:53.242Z,10.33
2019-03-21T19:20:24.641Z,9.00
2019-03-21T19:22:55.323Z,9.00
2019-03-21T19:25:30.409Z,9.00
2019-03-21T19:28:01.085Z,9.00
2019-03-21T19:30:32.699Z,9.00
2019-03-21T19:33:06.719Z,9.00
2019-03-21T19:35:40.166Z,7.00
2019-03-21T19:38:11.674Z,6.67
2019-03-21T19:40:47.343Z,6.33
2019-03-21T19:43:19.053Z,9.00
2019-03-21T19:45:49.436Z,7.67
2019-03-21T19:48:22.412Z,8.33
2019-03-21T19:50:54.033Z,7.00
2019-03-21T19:53:28.876Z,9.00
2019-03-21T19:56:08.752Z,8.00
2019-03-21T19:58:41.159Z,9.00
2019-03-21T20:01:19.867Z,7.33
2019-03-21T20:03:52.763Z,7.33
2019-03-21T20:06:24.869Z,7.00
2019-03-21T20:09:08.631Z,7.00
2019-03-21T20:11:45.903Z,7.67
2019-03-21T20:14:17.640Z,7.33
2019-03-21T20:16:49.728Z,6.50
2019-03-21T20:19:21.059Z,7.00
2019-03-21T20:21:52.479Z,6.33
2019-03-21T20:24:22.827Z,8.00
2019-03-21T20:26:56.626Z,6.00
2019-03-21T20:29:31.779Z,7.00
2019-03-21T20:32:04.770Z,6.67
2019-03-21T20:34:41.223Z,5.33
2019-03-21T20:37:13.903Z,8.00
2019-03-21T20:39:47.189Z,7.33
2019-03-21T20:42:19.455Z,4.00
2019-03-21T20:44:52.109Z,7.67
2019-03-21T20:47:25.320Z,5.50
2019-03-21T20:50:00.464Z,6.75
2019-03-21T20:52:32.094Z,6.00
2019-03-21T20:55:03.409Z,6.00
2019-03-21T20:57:34.633Z,7.00
2019-03-21T21:00:07.099Z,8.00
2019-03-21T21:02:43.693Z,9.00
2019-03-21T21:05:15.437Z,9.00
2019-03-21T21:07:49.091Z,7.00
2019-03-21T21:10:34.282Z,9.00
2019-03-21T21:13:09.698Z,11.00
2019-03-21T21:15:40.073Z,9.67
2019-03-21T21:18:12.357Z,11.00
2019-03-21T21:20:44.763Z,9.67
2019-03-21T21:23:17.755Z,10.33
2019-03-21T21:25:50.959Z,8.67
2019-03-21T21:28:21.688Z,12.00
2019-03-21T21:31:00.005Z,9.00
2019-03-21T21:33:31.735Z,10.33
2019-03-21T21:36:04.260Z,9.00
2019-03-21T21:38:40.414Z,8.00
2019-03-21T21:41:17.861Z,8.00
2019-03-21T21:43:54.315Z,11.00
2019-03-21T21:46:25.571Z,8.00
2019-03-21T21:48:59.184Z,7.67
2019-03-21T21:51:42.690Z,9.00
2019-03-21T21:54:14.021Z,8.00
2019-03-21T21:56:44.381Z,9.00
2019-03-21T21:59:17.292Z,9.67
2019-03-21T22:01:50.909Z,11.00
2019-03-21T22:04:24.928Z,9.00
2019-03-21T22:06:55.658Z,11.67
2019-03-21T22:09:26.087Z,11.00
2019-03-21T22:11:58.489Z,11.00
2019-03-21T22:14:33.305Z,11.33
2019-03-21T22:17:03.756Z,9.67
2019-03-21T22:19:34.091Z,11.00
2019-03-21T22:22:04.468Z,13.00
2019-03-21T22:24:37.683Z,11.00
2019-03-21T22:27:11.347Z,13.00
2019-03-21T22:29:41.725Z,11.00
2019-03-21T22:32:12.159Z,11.00
2019-03-21T22:34:42.448Z,12.33
2019-03-21T22:37:12.962Z,10.67
2019-03-21T22:39:46.743Z,14.67
2019-03-21T22:42:17.207Z,13.00
2019-03-21T22:44:50.667Z,11.00
2019-03-21T22:47:23.979Z,9.67
2019-03-21T22:50:21.121Z,11.00
2019-03-21T22:52:57.649Z,11.67
2019-03-21T22:55:47.584Z,10.00
2019-03-21T22:58:50.877Z,11.67
2019-03-21T23:01:21.799Z,11.67
2019-03-21T23:03:52.154Z,10.33
2019-03-21T23:06:26.992Z,10.67
2019-03-21T23:08:59.899Z,11.67
2019-03-21T23:11:35.442Z,11.67
2019-03-21T23:14:13.613Z,10.33
2019-03-21T23:16:44.477Z,8.00
2019-03-21T23:19:16.969Z,11.00
2019-03-21T23:21:54.631Z,10.67
2019-03-21T23:24:26.093Z,13.00
2019-03-21T23:27:08.396Z,11.00
2019-03-21T23:29:41.037Z,12.33
2019-03-21T23:32:37.001Z,10.67
2019-03-21T23:35:42.786Z,12.00
2019-03-21T23:38:20.876Z,10.67
2019-03-21T23:40:56.442Z,12.00
2019-03-21T23:43:30.818Z,10.00
2019-03-21T23:46:07.072Z,10.00
2019-03-21T23:48:39.834Z,13.00
2019-03-21T23:51:17.780Z,10.67
2019-03-21T23:54:02.350Z,12.00
2019-03-21T23:56:40.410Z,10.67
2019-03-21T23:59:12.021Z,12.00
